Time;durP1;ratioP1;P1;durP2;ratioP2;P2;SDS_P1;SDS_P2;PMS_P1;PMS_P2;Temp;Humidity;BMP_temperature;BMP_pressure;BME280_temperature;BME280_humidity;BME280_pressure;Samples;Min_cycle;Max_cycle;Signal;HPM_P1;HPM_P2
2023/06/12 00:01:41;;;;;;;2.70;1.60;;;;;;;17.38;100.00;98470.81;15296749;19;20070;-79
2023/06/12 00:07:09;;;;;;;2.95;1.52;;;;;;;17.32;100.00;98471.59;15301538;19;20029;-79
2023/06/12 00:12:33;;;;;;;4.40;1.80;;;;;;;17.25;100.00;98474.31;15296525;19;20736;-80
2023/06/12 00:17:58;;;;;;;3.70;1.60;;;;;;;17.21;100.00;98475.78;15301312;19;20006;-79
2023/06/12 00:23:27;;;;;;;3.58;1.70;;;;;;;17.16;100.00;98475.53;15289729;19;20015;-79
2023/06/12 00:28:52;;;;;;;1.92;1.80;;;;;;;17.09;100.00;98466.50;15294136;19;20020;-79
2023/06/12 00:34:17;;;;;;;3.38;1.70;;;;;;;17.04;100.00;98468.97;15293647;19;20018;-81
2023/06/12 00:39:44;;;;;;;2.13;1.55;;;;;;;16.98;100.00;98472.53;15299186;19;20110;-80
2023/06/12 00:45:09;;;;;;;2.30;1.75;;;;;;;16.92;100.00;98469.53;15293859;19;20018;-79
2023/06/12 00:50:35;;;;;;;2.35;1.48;;;;;;;16.88;100.00;98481.00;15306829;19;20042;-79
2023/06/12 00:56:02;;;;;;;3.22;1.65;;;;;;;16.83;100.00;98473.47;15307290;19;20019;-79
2023/06/12 01:01:29;;;;;;;2.85;1.70;;;;;;;16.75;100.00;98479.06;15310818;19;20022;-79
2023/06/12 01:07:03;;;;;;;2.00;1.50;;;;;;;16.69;100.00;98482.56;15310767;19;20018;-78
2023/06/12 01:12:32;;;;;;;3.13;1.90;;;;;;;16.66;100.00;98482.97;15311625;19;20015;-79
2023/06/12 01:17:58;;;;;;;3.35;1.60;;;;;;;16.60;100.00;98485.47;15339094;19;20021;-79
2023/06/12 01:23:51;;;;;;;1.70;1.60;;;;;;;16.56;100.00;98483.34;15364793;19;20041;-80
2023/06/12 01:30:05;;;;;;;2.20;1.73;;;;;;;16.52;100.00;98492.91;15303371;19;20350;-79
2023/06/12 01:35:37;;;;;;;2.38;1.55;;;;;;;16.46;100.00;98484.50;15304655;19;20082;-79
2023/06/12 01:41:03;;;;;;;3.72;1.77;;;;;;;16.42;100.00;98483.22;15298731;19;20021;-78
2023/06/12 01:46:35;;;;;;;3.67;1.70;;;;;;;16.37;100.00;98476.72;15303933;19;20387;-80
2023/06/12 01:52:03;;;;;;;1.75;1.60;;;;;;;16.31;100.00;98481.88;15327354;19;20011;-79
2023/06/12 01:57:30;;;;;;;3.45;1.83;;;;;;;16.24;100.00;98486.44;15316590;19;20011;-79
2023/06/12 02:03:06;;;;;;;2.90;1.80;;;;;;;16.15;100.00;98485.72;15272741;19;20014;-46
2023/06/12 02:08:34;;;;;;;2.50;1.80;;;;;;;16.11;100.00;98484.44;15281237;19;20018;-45
2023/06/12 02:13:58;;;;;;;3.90;1.83;;;;;;;16.06;100.00;98480.63;15286952;19;20411;-43
2023/06/12 02:19:25;;;;;;;2.67;1.80;;;;;;;16.02;100.00;98483.75;15281272;19;20084;-44
2023/06/12 02:24:52;;;;;;;3.78;1.90;;;;;;;15.98;100.00;98493.31;15287337;19;20023;-44
2023/06/12 02:30:18;;;;;;;2.40;1.85;;;;;;;15.95;100.00;98488.25;14768635;19;10002555;-46
2023/06/12 02:35:43;;;;;;;3.20;1.90;;;;;;;15.91;100.00;98502.44;15280182;19;20389;-47
2023/06/12 02:41:15;;;;;;;4.40;2.03;;;;;;;15.90;100.00;98500.75;15280046;19;20658;-44
2023/06/12 02:46:40;;;;;;;3.25;2.03;;;;;;;15.84;100.00;98518.63;15284010;19;20011;-44
2023/06/12 02:52:09;;;;;;;1.92;1.80;;;;;;;15.80;100.00;98515.47;15283884;19;20501;-45
2023/06/12 02:57:36;;;;;;;2.08;1.80;;;;;;;15.74;100.00;98518.97;15279990;19;20024;-45
2023/06/12 03:03:07;;;;;;;2.30;1.90;;;;;;;15.70;100.00;98523.91;15283081;19;20018;-45
2023/06/12 03:08:33;;;;;;;2.47;1.87;;;;;;;15.65;100.00;98518.22;15273688;19;20023;-43
2023/06/12 03:14:05;;;;;;;2.40;1.70;;;;;;;15.62;100.00;98521.31;15276644;19;20271;-43
2023/06/12 03:19:33;;;;;;;4.53;1.80;;;;;;;15.55;100.00;98529.41;15285288;19;20015;-45
2023/06/12 03:24:58;;;;;;;6.15;2.05;;;;;;;15.46;100.00;98524.28;15283547;19;20832;-43
2023/06/12 03:30:26;;;;;;;5.03;1.70;;;;;;;15.38;100.00;98522.50;15281070;19;20039;-45
2023/06/12 03:35:52;;;;;;;2.55;1.75;;;;;;;15.29;100.00;98524.50;15280967;19;20015;-43
2023/06/12 03:41:17;;;;;;;2.45;1.80;;;;;;;15.22;100.00;98526.28;15282034;19;20014;-45
2023/06/12 03:46:47;;;;;;;3.50;1.90;;;;;;;15.16;100.00;98535.16;15278014;19;20010;-44
2023/06/12 03:52:13;;;;;;;2.08;1.88;;;;;;;15.09;100.00;98533.22;15279384;19;20050;-44
2023/06/12 03:57:38;;;;;;;9.63;2.00;;;;;;;15.05;100.00;98529.19;15278235;19;20111;-43
2023/06/12 04:03:08;;;;;;;4.40;2.03;;;;;;;15.01;100.00;98525.16;15277379;19;20365;-45
2023/06/12 04:08:33;;;;;;;3.17;2.03;;;;;;;14.95;100.00;98531.34;15272080;19;20782;-45
2023/06/12 04:13:58;;;;;;;2.90;1.90;;;;;;;14.96;100.00;98530.31;15281502;19;20330;-45
2023/06/12 04:19:26;;;;;;;2.25;2.00;;;;;;;14.95;100.00;98537.59;15276987;19;20014;-46
2023/06/12 04:24:52;;;;;;;2.90;1.83;;;;;;;14.96;100.00;98541.16;15279409;19;20035;-44
2023/06/12 04:30:21;;;;;;;1.98;1.88;;;;;;;14.98;100.00;98549.09;15274826;19;20051;-45
2023/06/12 04:35:49;;;;;;;2.30;2.03;;;;;;;15.02;100.00;98545.00;15273612;19;20029;-46
2023/06/12 04:41:13;;;;;;;3.28;2.00;;;;;;;15.03;100.00;98550.22;15271452;19;20091;-44
2023/06/12 04:46:39;;;;;;;2.55;2.10;;;;;;;15.11;100.00;98538.44;15278161;19;20027;-44
2023/06/12 04:52:06;;;;;;;3.38;1.95;;;;;;;15.17;100.00;98536.84;15274750;19;20006;-44
2023/06/12 04:57:31;;;;;;;4.88;1.75;;;;;;;15.32;100.00;98536.84;15277193;19;20038;-44
2023/06/12 05:03:04;;;;;;;3.85;1.70;;;;;;;15.45;100.00;98528.03;15274421;19;20026;-44
2023/06/12 05:08:32;;;;;;;2.92;1.80;;;;;;;15.62;100.00;98532.19;15277353;19;20014;-44
2023/06/12 05:13:57;;;;;;;3.60;1.80;;;;;;;15.77;100.00;98528.59;15270640;19;20480;-43
2023/06/12 05:19:22;;;;;;;3.63;1.90;;;;;;;15.93;100.00;98535.69;15272430;19;20011;-44
2023/06/12 05:24:50;;;;;;;3.60;1.80;;;;;;;16.09;100.00;98532.72;15271611;19;20092;-44
2023/06/12 05:30:17;;;;;;;2.80;1.80;;;;;;;16.27;100.00;98531.41;15272050;19;20014;-44
2023/06/12 05:35:44;;;;;;;4.55;1.70;;;;;;;16.44;100.00;98535.56;15288371;19;20018;-43
2023/06/12 05:41:12;;;;;;;2.60;1.70;;;;;;;16.64;100.00;98538.41;15291973;19;20131;-43
2023/06/12 05:46:37;;;;;;;2.38;1.50;;;;;;;16.88;100.00;98535.44;15281940;19;20492;-45
2023/06/12 05:52:02;;;;;;;3.22;1.63;;;;;;;17.09;100.00;98532.66;15285808;19;20023;-46
2023/06/12 05:57:37;;;;;;;2.80;1.52;;;;;;;17.36;100.00;98535.53;15282982;19;20029;-45
2023/06/12 06:03:04;;;;;;;2.05;1.38;;;;;;;17.56;100.00;98535.63;15285841;19;20018;-44
2023/06/12 06:08:28;;;;;;;1.60;1.30;;;;;;;17.77;100.00;98538.38;15286472;19;20106;-51
2023/06/12 06:13:56;;;;;;;1.98;1.30;;;;;;;17.99;100.00;98537.22;15288331;19;20053;-44
2023/06/12 06:19:23;;;;;;;3.28;1.50;;;;;;;18.19;100.00;98547.34;15276515;19;20018;-46
2023/06/12 06:24:48;;;;;;;3.75;1.35;;;;;;;18.38;100.00;98551.13;15284849;19;20034;-45
2023/06/12 06:30:16;;;;;;;2.83;1.27;;;;;;;18.60;100.00;98554.47;15280973;19;20022;-45
2023/06/12 06:35:41;;;;;;;3.50;1.30;;;;;;;18.81;100.00;98559.94;15283946;19;20022;-45
2023/06/12 06:41:05;;;;;;;3.80;1.30;;;;;;;19.00;100.00;98555.53;15286987;19;20482;-47
2023/06/12 06:46:34;;;;;;;4.57;1.15;;;;;;;19.20;100.00;98563.69;15282927;19;20228;-47
2023/06/12 06:51:59;;;;;;;4.13;1.10;;;;;;;19.36;96.37;98554.19;15274323;19;20025;-43
2023/06/12 06:57:26;;;;;;;3.15;1.20;;;;;;;19.58;88.39;98568.38;15280567;19;20017;-46
2023/06/12 07:03:02;;;;;;;3.80;1.40;;;;;;;19.78;83.13;98564.72;15280373;19;20014;-43
2023/06/12 07:08:27;;;;;;;2.45;1.13;;;;;;;19.94;83.49;98568.88;15278533;19;20082;-46
2023/06/12 07:13:51;;;;;;;3.85;1.30;;;;;;;20.10;81.11;98562.91;15281099;19;20024;-44
2023/06/12 07:19:19;;;;;;;1.73;1.05;;;;;;;20.26;75.28;98561.53;15252709;19;20447;-44
2023/06/12 07:24:43;;;;;;;5.80;1.15;;;;;;;20.44;74.44;98566.25;15274421;19;20018;-43
2023/06/12 07:30:10;;;;;;;3.00;1.20;;;;;;;20.61;72.97;98565.69;15276400;19;20010;-50
2023/06/12 07:35:38;;;;;;;2.17;1.02;;;;;;;20.78;71.48;98563.25;15281229;19;20007;-45
2023/06/12 07:41:03;;;;;;;1.20;1.02;;;;;;;20.97;68.79;98568.78;15281502;19;20018;-44
2023/06/12 07:46:28;;;;;;;3.47;1.38;;;;;;;21.12;68.77;98555.53;15279398;19;20039;-43
2023/06/12 07:51:56;;;;;;;1.02;0.95;;;;;;;21.25;66.69;98558.16;15276971;19;20014;-43
2023/06/12 07:57:22;;;;;;;3.63;1.30;;;;;;;21.34;66.82;98555.94;15270152;19;20411;-49
2023/06/12 08:02:54;;;;;;;2.13;1.30;;;;;;;21.50;66.66;98557.25;15270905;19;20026;-45
2023/06/12 08:08:48;;;;;;;3.22;1.20;;;;;;;21.67;65.85;98562.13;15274851;19;20018;-44
2023/06/12 08:14:13;;;;;;;2.70;1.20;;;;;;;21.80;61.64;98559.22;15279026;19;20445;-46
2023/06/12 08:19:37;;;;;;;4.10;1.20;;;;;;;21.96;62.83;98562.38;15277587;19;20014;-45
2023/06/12 08:25:06;;;;;;;2.55;1.00;;;;;;;22.14;55.67;98558.75;15277421;19;20452;-44
2023/06/12 08:30:31;;;;;;;4.18;1.15;;;;;;;22.23;58.97;98551.84;15271675;19;20025;-48
2023/06/12 08:35:58;;;;;;;3.08;1.33;;;;;;;22.35;56.37;98548.28;15269395;19;20103;-50
2023/06/12 08:41:27;;;;;;;1.58;1.10;;;;;;;22.51;53.82;98549.59;15276006;19;20772;-47
2023/06/12 08:46:57;;;;;;;2.60;1.20;;;;;;;22.68;53.10;98542.31;15274962;19;20026;-47
2023/06/12 08:52:23;;;;;;;2.47;1.20;;;;;;;22.85;54.39;98536.94;15274389;19;20027;-44
2023/06/12 08:57:51;;;;;;;4.55;1.30;;;;;;;23.00;51.36;98550.19;15277282;19;20086;-44
2023/06/12 09:03:23;;;;;;;2.78;0.98;;;;;;;23.04;48.35;98540.41;15271656;19;20027;-48
2023/06/12 09:08:48;;;;;;;3.30;1.10;;;;;;;23.16;50.52;98545.06;15274046;19;20038;-45
2023/06/12 09:14:15;;;;;;;0.93;0.90;;;;;;;23.36;51.38;98553.78;15292177;19;20066;-46
2023/06/12 09:19:43;;;;;;;2.63;1.10;;;;;;;23.39;51.53;98534.06;15291870;19;20355;-45
2023/06/12 09:25:14;;;;;;;2.90;1.00;;;;;;;23.45;48.56;98542.41;15290164;19;20337;-45
2023/06/12 09:30:44;;;;;;;2.40;0.80;;;;;;;23.52;43.16;98529.34;15289578;19;20021;-44
2023/06/12 09:36:13;;;;;;;3.20;0.95;;;;;;;23.67;47.41;98546.19;15286802;19;20025;-43
2023/06/12 09:41:38;;;;;;;2.90;0.90;;;;;;;23.81;46.90;98543.16;15285895;19;20018;-44
2023/06/12 09:47:09;;;;;;;1.98;1.00;;;;;;;23.85;47.79;98538.81;15287109;19;20346;-44
2023/06/12 09:52:34;;;;;;;3.65;1.10;;;;;;;23.89;46.82;98525.38;15285160;19;20506;-45
2023/06/12 09:58:02;;;;;;;2.72;0.95;;;;;;;24.09;46.74;98538.72;15284253;19;20022;-44
2023/06/12 10:03:30;;;;;;;5.53;0.90;;;;;;;24.20;46.97;98523.25;15278820;19;20014;-45
2023/06/12 10:08:56;;;;;;;4.78;1.10;;;;;;;24.24;45.73;98524.41;15283325;19;20340;-47
2023/06/12 10:14:26;;;;;;;5.03;1.00;;;;;;;24.25;46.40;98529.69;15284982;19;20014;-45
2023/06/12 10:19:54;;;;;;;8.43;1.10;;;;;;;24.45;46.46;98525.59;15285541;19;20364;-46
2023/06/12 10:25:20;;;;;;;2.00;1.00;;;;;;;24.58;45.10;98521.66;15286301;19;20011;-45
2023/06/12 10:30:45;;;;;;;3.45;1.05;;;;;;;24.65;45.85;98516.84;15284914;19;20018;-45
2023/06/12 10:36:16;;;;;;;2.72;1.00;;;;;;;24.72;44.66;98509.25;15279492;19;20011;-45
2023/06/12 10:41:43;;;;;;;2.10;0.90;;;;;;;24.68;44.52;98504.47;15286467;19;20018;-45
2023/06/12 10:47:08;;;;;;;0.93;0.80;;;;;;;24.81;43.09;98514.38;15277814;19;20014;-52
2023/06/12 10:52:36;;;;;;;2.72;0.90;;;;;;;24.69;42.03;98500.66;15283477;19;20006;-48
2023/06/12 10:58:03;;;;;;;2.38;0.80;;;;;;;24.60;42.40;98506.59;15283737;19;20021;-50
2023/06/12 11:03:33;;;;;;;1.88;0.80;;;;;;;24.53;41.59;98497.63;15283164;19;20033;-46
2023/06/12 11:09:11;;;;;;;2.72;1.02;;;;;;;24.60;39.77;98494.72;15270715;19;20024;-47
2023/06/12 11:14:41;;;;;;;1.80;1.10;;;;;;;24.72;40.68;98487.22;15283130;19;20031;-53
2023/06/12 11:20:07;;;;;;;1.35;0.82;;;;;;;24.80;40.30;98480.44;15278905;19;20017;-48
2023/06/12 11:25:35;;;;;;;4.05;1.00;;;;;;;24.96;39.76;98480.69;15283315;19;20014;-48
2023/06/12 11:31:02;;;;;;;1.83;0.90;;;;;;;25.02;40.06;98474.13;15277896;19;20028;-49
2023/06/12 11:36:31;;;;;;;1.70;1.00;;;;;;;25.22;40.42;98462.53;15281706;19;20074;-49
2023/06/12 11:41:58;;;;;;;4.43;1.00;;;;;;;25.29;39.68;98463.19;15277158;19;20028;-47
2023/06/12 11:47:23;;;;;;;5.38;1.15;;;;;;;25.46;39.91;98468.66;15277621;19;20025;-47
2023/06/12 11:52:52;;;;;;;1.33;0.90;;;;;;;25.61;39.16;98464.41;15273036;19;20016;-49
2023/06/12 11:58:20;;;;;;;3.13;1.00;;;;;;;25.79;38.26;98455.78;15278167;19;20363;-45
2023/06/12 12:03:46;;;;;;;5.18;1.10;;;;;;;25.87;37.60;98456.41;15274644;19;20861;-46
2023/06/12 12:09:14;;;;;;;2.22;0.90;;;;;;;25.64;36.54;98439.88;15275239;19;20023;-45
2023/06/12 12:14:52;;;;;;;1.65;0.90;;;;;;;25.48;35.49;98440.84;15272460;19;20018;-46
2023/06/12 12:20:25;;;;;;;2.78;0.90;;;;;;;25.74;35.53;98435.59;15276550;19;20011;-47
2023/06/12 12:25:51;;;;;;;4.18;0.98;;;;;;;26.00;36.81;98447.69;15279067;19;20022;-49
2023/06/12 12:31:19;;;;;;;2.42;0.80;;;;;;;26.24;35.84;98439.09;15276683;19;20478;-50
2023/06/12 12:36:44;;;;;;;3.13;0.90;;;;;;;26.48;35.96;98427.69;15277764;19;20011;-48
2023/06/12 12:42:10;;;;;;;3.15;0.90;;;;;;;26.57;36.02;98423.31;15281725;19;20018;-49
2023/06/12 12:47:40;;;;;;;3.90;0.88;;;;;;;26.68;36.15;98419.50;15281077;19;20017;-49
2023/06/12 12:53:04;;;;;;;3.23;1.00;;;;;;;26.84;36.86;98412.16;15284338;19;20025;-46
2023/06/12 12:58:29;;;;;;;2.05;0.90;;;;;;;26.86;36.42;98418.25;15286875;19;20029;-49
2023/06/12 13:04:05;;;;;;;3.50;1.00;;;;;;;26.62;36.94;98417.81;15287804;19;20022;-49
2023/06/12 13:09:31;;;;;;;1.15;0.80;;;;;;;26.90;37.94;98405.56;15291280;19;20015;-44
2023/06/12 13:14:55;;;;;;;3.10;1.10;;;;;;;27.19;38.20;98409.84;15290968;19;20014;-45
2023/06/12 13:20:22;;;;;;;3.92;1.00;;;;;;;27.51;37.05;98401.41;15285363;19;20010;-46
2023/06/12 13:25:47;;;;;;;2.40;1.00;;;;;;;27.61;38.21;98389.50;15284390;19;20014;-47
2023/06/12 13:31:11;;;;;;;1.95;1.00;;;;;;;28.06;37.94;98389.81;15288838;19;20369;-47
2023/06/12 13:36:39;;;;;;;2.55;0.90;;;;;;;28.28;37.45;98386.75;15287801;19;20013;-44
2023/06/12 13:42:03;;;;;;;2.72;1.00;;;;;;;28.76;37.15;98388.34;15287741;19;20086;-44
2023/06/12 13:47:28;;;;;;;2.03;0.90;;;;;;;29.15;37.15;98387.66;15286826;19;20014;-45
2023/06/12 13:52:56;;;;;;;2.33;1.10;;;;;;;29.26;36.41;98404.25;15278401;19;20734;-51
2023/06/12 13:58:21;;;;;;;1.40;0.93;;;;;;;29.25;35.90;98397.03;15280653;19;20025;-48
2023/06/12 14:03:53;;;;;;;3.80;0.90;;;;;;;29.26;36.33;98393.16;15284486;19;20366;-47
2023/06/12 14:09:21;;;;;;;3.30;0.95;;;;;;;29.54;34.96;98390.81;15281543;19;20014;-46
2023/06/12 14:14:48;;;;;;;1.75;0.90;;;;;;;29.78;35.04;98394.53;15279342;19;20035;-45
2023/06/12 14:20:14;;;;;;;1.48;0.90;;;;;;;30.00;34.08;98379.41;15287091;19;20070;-44
2023/06/12 14:25:43;;;;;;;1.10;0.90;;;;;;;30.27;34.47;98380.84;15278844;19;20398;-43
2023/06/12 14:31:07;;;;;;;1.35;0.88;;;;;;;30.58;33.31;98372.19;15281449;19;20007;-49
2023/06/12 14:36:32;;;;;;;2.20;0.95;;;;;;;30.66;33.49;98371.53;15281822;19;20025;-50
2023/06/12 14:41:59;;;;;;;3.25;0.80;;;;;;;30.59;33.27;98380.25;15286679;19;20085;-44
2023/06/12 14:47:24;;;;;;;1.90;0.90;;;;;;;30.63;33.47;98374.94;15280330;19;20014;-44
2023/06/12 14:52:48;;;;;;;1.75;1.00;;;;;;;30.31;32.27;98359.66;15281898;19;20023;-46
2023/06/12 14:58:16;;;;;;;1.48;0.90;;;;;;;30.31;32.83;98367.19;15278117;19;20021;-48
2023/06/12 15:03:41;;;;;;;1.10;0.80;;;;;;;30.50;32.10;98362.53;15273902;19;20015;-43
2023/06/12 15:09:06;;;;;;;1.27;0.90;;;;;;;30.54;32.45;98365.56;15276887;19;20015;-44
2023/06/12 15:14:34;;;;;;;5.50;1.10;;;;;;;30.94;31.84;98363.44;15279736;19;20006;-46
2023/06/12 15:19:59;;;;;;;1.65;0.75;;;;;;;30.93;31.95;98352.63;15282615;19;20073;-46
2023/06/12 15:25:24;;;;;;;3.15;0.90;;;;;;;31.19;32.08;98358.69;15270881;19;20772;-48
2023/06/12 15:30:51;;;;;;;1.35;0.80;;;;;;;31.51;31.90;98348.78;15271956;19;20007;-44
2023/06/12 15:36:16;;;;;;;1.92;0.90;;;;;;;31.61;31.18;98342.22;15259405;19;20014;-48
2023/06/12 15:41:41;;;;;;;1.02;0.80;;;;;;;31.54;31.43;98341.75;15272664;19;20022;-45
2023/06/12 15:47:10;;;;;;;2.35;0.90;;;;;;;31.50;30.73;98345.16;15269517;19;20077;-47
2023/06/12 15:52:35;;;;;;;1.73;0.95;;;;;;;31.65;32.02;98343.25;15270238;19;20018;-45
2023/06/12 15:58:00;;;;;;;1.08;0.75;;;;;;;31.78;31.13;98336.94;15262378;19;20016;-44
2023/06/12 16:03:34;;;;;;;3.13;0.70;;;;;;;31.35;31.24;98340.63;15267488;19;20045;-51
2023/06/12 16:08:59;;;;;;;2.22;0.73;;;;;;;31.27;31.52;98329.38;15262929;19;20022;-46
2023/06/12 16:14:23;;;;;;;1.00;0.75;;;;;;;30.76;32.29;98323.34;15266156;19;20025;-44
2023/06/12 16:19:50;;;;;;;1.33;0.70;;;;;;;30.44;32.53;98341.47;15269835;19;20030;-49
2023/06/12 16:25:16;;;;;;;1.35;0.88;;;;;;;30.32;32.57;98329.94;15271364;19;20082;-48
2023/06/12 16:30:40;;;;;;;1.98;0.73;;;;;;;29.95;33.33;98333.06;15262660;19;20349;-44
2023/06/12 16:36:08;;;;;;;3.20;0.70;;;;;;;29.75;33.14;98338.75;15277499;19;20025;-51
2023/06/12 16:41:34;;;;;;;1.60;0.80;;;;;;;29.78;33.60;98329.81;15335399;19;20015;-54
2023/06/12 16:47:00;;;;;;;5.35;0.90;;;;;;;29.63;33.72;98319.69;15308038;19;20435;-49
2023/06/12 16:52:28;;;;;;;1.20;0.70;;;;;;;29.79;33.35;98329.56;15281302;19;20475;-50
2023/06/12 16:57:55;;;;;;;2.15;0.80;;;;;;;29.56;33.48;98338.63;15278030;19;20038;-47
2023/06/12 17:03:23;;;;;;;2.47;0.80;;;;;;;29.38;33.93;98331.81;15272447;19;20013;-48
2023/06/12 17:08:50;;;;;;;2.78;0.82;;;;;;;29.20;33.79;98329.38;15278938;19;20033;-50
2023/06/12 17:14:14;;;;;;;2.45;0.70;;;;;;;28.95;34.14;98330.34;15271357;19;20024;-45
2023/06/12 17:19:39;;;;;;;2.42;0.70;;;;;;;28.71;34.57;98332.91;15278048;19;20011;-48
2023/06/12 17:25:08;;;;;;;1.88;0.80;;;;;;;28.56;34.61;98334.63;15286396;19;20017;-47
2023/06/12 17:30:33;;;;;;;2.55;0.90;;;;;;;28.48;34.94;98332.44;15295315;19;20100;-45
2023/06/12 17:35:59;;;;;;;1.85;0.90;;;;;;;28.27;35.50;98331.66;15281826;19;20024;-45
2023/06/12 17:41:28;;;;;;;2.58;0.85;;;;;;;28.02;36.48;98326.97;15292822;19;20721;-49
2023/06/12 17:46:53;;;;;;;0.70;0.70;;;;;;;27.76;36.54;98329.72;15287565;19;20451;-44
2023/06/12 17:52:17;;;;;;;3.63;0.80;;;;;;;27.44;37.13;98330.78;15290987;19;20014;-45
2023/06/12 17:57:45;;;;;;;2.30;0.73;;;;;;;27.14;38.01;98332.38;15287168;19;20014;-49
2023/06/12 18:03:16;;;;;;;1.70;0.80;;;;;;;26.81;38.78;98338.09;15283409;19;20018;-44
2023/06/12 18:08:41;;;;;;;2.33;0.70;;;;;;;26.45;39.36;98335.94;15279831;19;20021;-47
2023/06/12 18:14:09;;;;;;;1.17;0.80;;;;;;;26.13;39.29;98333.25;15285445;19;20090;-47
2023/06/12 18:19:34;;;;;;;1.73;0.90;;;;;;;25.68;40.43;98332.63;15284348;19;20014;-46
2023/06/12 18:24:59;;;;;;;2.10;1.00;;;;;;;25.24;40.97;98320.56;15286124;19;20014;-47
2023/06/12 18:30:29;;;;;;;3.70;1.00;;;;;;;24.91;42.59;98319.69;15288570;19;20025;-48
2023/06/12 18:35:54;;;;;;;1.65;0.90;;;;;;;24.52;42.57;98324.41;15281180;19;20021;-44
2023/06/12 18:41:19;;;;;;;2.75;0.85;;;;;;;24.11;43.82;98328.22;15280547;19;20078;-44
2023/06/12 18:46:46;;;;;;;0.98;0.77;;;;;;;23.66;44.93;98323.63;15286913;19;20014;-45
2023/06/12 18:52:11;;;;;;;2.35;1.00;;;;;;;23.20;46.77;98335.47;15279899;19;20025;-45
2023/06/12 18:57:35;;;;;;;2.70;0.93;;;;;;;22.88;46.84;98343.34;15286147;19;20833;-46
2023/06/12 19:03:09;;;;;;;3.10;0.95;;;;;;;22.49;48.97;98343.09;15285364;19;20018;-47
2023/06/12 19:08:34;;;;;;;1.27;0.85;;;;;;;22.15;49.86;98344.50;15283637;19;20506;-51
2023/06/12 19:13:59;;;;;;;2.83;1.00;;;;;;;21.78;50.46;98341.97;15277150;19;20021;-51
2023/06/12 19:19:26;;;;;;;2.72;1.00;;;;;;;21.52;52.36;98354.19;15281674;19;20022;-48
2023/06/12 19:24:51;;;;;;;1.17;1.00;;;;;;;21.27;52.74;98351.59;15286672;19;20022;-47
2023/06/12 19:30:16;;;;;;;1.95;0.90;;;;;;;21.03;54.92;98354.22;15285623;19;20582;-44
2023/06/12 19:35:44;;;;;;;3.38;0.90;;;;;;;20.82;55.30;98356.41;15276830;19;20024;-48
2023/06/12 19:41:09;;;;;;;1.85;1.20;;;;;;;20.61;56.51;98355.78;15285479;19;20478;-51
2023/06/12 19:46:34;;;;;;;2.20;1.00;;;;;;;20.40;58.58;98367.19;15276562;19;20021;-47
2023/06/12 19:52:02;;;;;;;2.53;0.95;;;;;;;20.26;61.15;98369.19;15259302;19;20018;-52
2023/06/12 19:57:27;;;;;;;2.90;1.05;;;;;;;20.06;62.28;98359.28;15282176;19;20014;-45
2023/06/12 20:02:52;;;;;;;1.52;1.00;;;;;;;19.87;64.49;98363.88;15282518;19;20022;-51
2023/06/12 20:08:20;;;;;;;2.05;0.95;;;;;;;19.73;64.82;98371.31;15282254;19;20077;-50
2023/06/12 20:13:45;;;;;;;1.77;1.10;;;;;;;19.60;66.48;98369.50;15281791;19;20442;-50
2023/06/12 20:19:10;;;;;;;1.65;0.95;;;;;;;19.49;65.21;98372.94;15274936;19;20051;-50
2023/06/12 20:24:40;;;;;;;1.63;0.90;;;;;;;19.37;66.91;98370.91;15279215;19;20023;-44
2023/06/12 20:30:05;;;;;;;3.47;0.90;;;;;;;19.32;65.54;98376.22;15281088;19;20040;-44
2023/06/12 20:35:31;;;;;;;3.83;0.90;;;;;;;19.23;67.33;98372.03;15279988;19;20028;-46
2023/06/12 20:40:58;;;;;;;3.33;1.10;;;;;;;19.15;66.26;98369.59;15282672;19;20010;-46
2023/06/12 20:46:23;;;;;;;1.58;1.00;;;;;;;19.07;67.93;98359.75;15280719;19;20017;-48
2023/06/12 20:51:47;;;;;;;3.78;1.00;;;;;;;18.97;68.16;98362.09;15275811;19;20029;-47
2023/06/12 20:57:14;;;;;;;1.80;1.05;;;;;;;18.87;70.66;98368.03;15273362;19;20374;-47
2023/06/12 21:02:39;;;;;;;3.28;1.10;;;;;;;18.80;70.43;98357.13;15282659;19;20363;-51
2023/06/12 21:08:04;;;;;;;4.63;1.20;;;;;;;18.71;72.27;98355.66;15291192;19;20424;-48
2023/06/12 21:13:31;;;;;;;2.88;1.00;;;;;;;18.61;73.37;98345.22;15295402;19;20403;-45
2023/06/12 21:18:56;;;;;;;3.17;1.10;;;;;;;18.53;74.28;98350.91;15289429;19;20018;-45
2023/06/12 21:24:20;;;;;;;3.40;1.10;;;;;;;18.41;75.16;98337.09;15288388;19;20054;-48
2023/06/12 21:29:48;;;;;;;1.58;1.17;;;;;;;18.31;79.13;98340.28;15289839;19;20618;-50
2023/06/12 21:35:15;;;;;;;1.95;0.80;;;;;;;18.22;79.10;98345.13;15290219;19;20018;-51
2023/06/12 21:40:40;;;;;;;1.92;0.98;;;;;;;18.17;79.89;98348.47;15294762;19;20492;-48
2023/06/12 21:46:07;;;;;;;3.13;1.10;;;;;;;18.05;83.55;98346.63;15292021;19;20029;-48
2023/06/12 21:51:33;;;;;;;3.15;1.38;;;;;;;17.98;83.38;98344.75;15292116;19;20022;-52
2023/06/12 21:56:57;;;;;;;3.40;1.15;;;;;;;17.91;84.78;98348.50;15280796;19;20014;-45
2023/06/12 22:02:24;;;;;;;2.80;1.00;;;;;;;17.81;88.35;98344.31;15285054;19;20482;-44
2023/06/12 22:07:49;;;;;;;1.65;0.80;;;;;;;17.73;87.26;98347.22;15288929;19;20467;-44
2023/06/12 22:13:14;;;;;;;2.03;0.90;;;;;;;17.64;90.28;98351.22;15290857;19;20014;-47
2023/06/12 22:18:41;;;;;;;4.68;0.90;;;;;;;17.58;90.39;98343.91;15287216;19;20490;-44
2023/06/12 22:24:07;;;;;;;1.95;1.00;;;;;;;17.47;93.29;98343.44;15293027;19;20014;-45
2023/06/12 22:29:31;;;;;;;2.17;1.10;;;;;;;17.40;92.96;98354.31;15290352;19;20428;-46
2023/06/12 22:34:59;;;;;;;3.13;1.10;;;;;;;17.32;97.56;98340.09;15286010;19;20377;-53
2023/06/12 22:40:24;;;;;;;2.92;1.13;;;;;;;17.25;96.91;98343.63;15291614;19;20074;-48
2023/06/12 22:45:49;;;;;;;1.83;0.90;;;;;;;17.20;99.57;98345.28;15290143;19;20046;-48
2023/06/12 22:51:16;;;;;;;2.72;1.00;;;;;;;17.13;99.49;98350.72;15290788;19;20018;-49
2023/06/12 22:56:41;;;;;;;2.15;1.20;;;;;;;17.06;100.00;98347.16;15285040;19;20021;-50
2023/06/12 23:02:05;;;;;;;1.88;1.10;;;;;;;16.96;100.00;98350.25;15287281;19;20018;-48
2023/06/12 23:07:35;;;;;;;1.30;1.00;;;;;;;16.87;100.00;98346.84;15280995;19;20094;-49
2023/06/12 23:12:59;;;;;;;2.83;1.27;;;;;;;16.77;100.00;98340.94;15287259;19;21172;-50
2023/06/12 23:18:29;;;;;;;2.75;1.30;;;;;;;16.70;100.00;98345.53;15285296;19;20677;-45
2023/06/12 23:23:57;;;;;;;3.08;1.10;;;;;;;16.62;100.00;98347.38;15288892;19;20025;-48
2023/06/12 23:29:22;;;;;;;1.45;1.10;;;;;;;16.55;100.00;98351.09;15274452;19;20483;-45
2023/06/12 23:34:49;;;;;;;2.88;1.27;;;;;;;16.51;100.00;98347.09;15284674;19;20078;-49
2023/06/12 23:40:17;;;;;;;3.17;1.13;;;;;;;16.49;100.00;98347.31;15281371;19;20024;-44
2023/06/12 23:45:41;;;;;;;2.80;1.17;;;;;;;16.46;100.00;98347.72;15285330;19;20028;-48
2023/06/12 23:51:06;;;;;;;1.38;1.08;;;;;;;16.43;100.00;98337.22;15287283;19;20014;-44
2023/06/12 23:56:33;;;;;;;1.85;1.20;;;;;;;16.40;100.00;98337.66;15282867;19;20014;-47
